Time;durP1;ratioP1;P1;durP2;ratioP2;P2;SDS_P1;SDS_P2;PMS_P1;PMS_P2;Temp;Humidity;BMP_temperature;BMP_pressure;BME280_temperature;BME280_humidity;BME280_pressure;Samples;Min_cycle;Max_cycle;Signal;HPM_P1;HPM_P2
2021/01/28 00:00:50;;;;;;;8.68;5.28;;;21.70;41.30;;;;;;5077076;28;20028;-48
2021/01/28 00:03:15;;;;;;;8.45;4.97;;;21.70;41.40;;;;;;5077034;28;20059;-47
2021/01/28 00:05:42;;;;;;;7.15;5.20;;;21.70;41.30;;;;;;5076812;28;20440;-47
2021/01/28 00:08:08;;;;;;;7.63;5.05;;;21.70;42.00;;;;;;5076421;28;20035;-50
2021/01/28 00:10:34;;;;;;;7.78;5.22;;;21.60;41.30;;;;;;5077328;28;20036;-49
2021/01/28 00:13:01;;;;;;;7.22;4.97;;;21.60;41.40;;;;;;5076847;28;20374;-45
2021/01/28 00:15:31;;;;;;;9.30;5.60;;;21.60;41.30;;;;;;5076833;28;20039;-47
2021/01/28 00:17:57;;;;;;;8.07;5.35;;;21.50;41.30;;;;;;5076751;28;20063;-46
2021/01/28 00:20:38;;;;;;;10.82;5.35;;;21.50;41.30;;;;;;5076888;28;20060;-49
2021/01/28 00:23:05;;;;;;;7.65;5.20;;;21.50;41.30;;;;;;5077136;28;20086;-47
2021/01/28 00:25:30;;;;;;;7.53;4.78;;;21.50;41.30;;;;;;5076497;28;20113;-51
2021/01/28 00:27:56;;;;;;;8.38;4.85;;;21.50;41.30;;;;;;5076440;28;20016;-45
2021/01/28 00:30:29;;;;;;;10.07;4.95;;;21.50;41.40;;;;;;5076781;28;20095;-48
2021/01/28 00:32:56;;;;;;;6.72;4.93;;;21.50;41.40;;;;;;5076907;28;20047;-48
2021/01/28 00:35:28;;;;;;;7.82;5.00;;;21.40;41.40;;;;;;5076447;28;20032;-46
2021/01/28 00:37:54;;;;;;;6.97;4.38;;;21.40;41.30;;;;;;5076347;28;20111;-48
2021/01/28 00:40:20;;;;;;;7.47;5.38;;;21.40;41.40;;;;;;5076331;28;20108;-51
2021/01/28 00:42:48;;;;;;;10.63;5.63;;;21.40;41.40;;;;;;5075956;28;20443;-45
2021/01/28 00:45:15;;;;;;;10.60;5.72;;;21.40;41.40;;;;;;5076569;28;20017;-48
2021/01/28 00:47:40;;;;;;;11.20;5.53;;;21.30;41.30;;;;;;5075761;28;20510;-47
2021/01/28 00:50:07;;;;;;;8.32;5.40;;;21.30;41.30;;;;;;5076253;28;20103;-50
2021/01/28 00:52:32;;;;;;;10.23;4.97;;;21.30;41.30;;;;;;5076428;28;20359;-50
2021/01/28 00:54:58;;;;;;;7.95;4.97;;;21.30;41.40;;;;;;5076160;28;20024;-49
2021/01/28 00:57:23;;;;;;;7.78;4.85;;;21.30;41.40;;;;;;5076166;28;20439;-48
2021/01/28 00:59:49;;;;;;;6.55;4.32;;;21.20;41.30;;;;;;5075970;28;20025;-51
2021/01/28 01:02:14;;;;;;;7.30;4.22;;;21.20;41.40;;;;;;5075558;28;20405;-47
2021/01/28 01:04:40;;;;;;;6.55;4.43;;;21.20;41.30;;;;;;5075907;28;20354;-46
2021/01/28 01:07:05;;;;;;;8.13;4.85;;;21.20;41.40;;;;;;5075808;28;20020;-50
2021/01/28 01:09:31;;;;;;;7.88;5.22;;;21.20;41.40;;;;;;5075410;28;20358;-49
2021/01/28 01:11:56;;;;;;;8.10;4.90;;;21.20;41.40;;;;;;5075634;28;20029;-46
2021/01/28 01:14:22;;;;;;;6.53;4.78;;;21.10;41.40;;;;;;5075808;28;20036;-48
2021/01/28 01:16:48;;;;;;;8.55;4.72;;;21.10;41.40;;;;;;5075650;28;20028;-50
2021/01/28 01:19:15;;;;;;;7.78;4.90;;;21.10;41.40;;;;;;5075441;28;20028;-47
2021/01/28 01:21:41;;;;;;;9.30;5.03;;;21.10;41.40;;;;;;5075137;28;20443;-50
2021/01/28 01:24:06;;;;;;;8.13;4.68;;;21.10;42.10;;;;;;5075291;28;20031;-49
2021/01/28 01:26:32;;;;;;;7.60;5.07;;;21.10;41.50;;;;;;5075718;28;20020;-49
2021/01/28 01:28:57;;;;;;;9.05;5.30;;;21.00;41.40;;;;;;5075550;28;20110;-46
2021/01/28 01:31:23;;;;;;;8.18;5.03;;;21.00;41.40;;;;;;5075122;28;20036;-48
2021/01/28 01:33:49;;;;;;;9.35;5.18;;;21.00;41.50;;;;;;5074873;28;20044;-49
2021/01/28 01:36:14;;;;;;;8.57;5.28;;;21.00;41.50;;;;;;5075694;28;20020;-49
2021/01/28 01:38:40;;;;;;;8.65;5.10;;;21.00;41.50;;;;;;5075193;28;20048;-53
2021/01/28 01:41:05;;;;;;;11.50;5.60;;;21.00;41.50;;;;;;5075255;28;20100;-48
2021/01/28 01:43:31;;;;;;;11.48;5.63;;;21.00;41.50;;;;;;5075317;28;20028;-47
2021/01/28 01:46:04;;;;;;;9.73;5.00;;;20.90;41.50;;;;;;5075164;28;20016;-49
2021/01/28 01:48:32;;;;;;;8.93;5.05;;;20.90;41.50;;;;;;5075043;28;20412;-47
2021/01/28 01:51:21;;;;;;;9.50;5.10;;;20.90;41.50;;;;;;5074647;28;20025;-46
2021/01/28 01:53:59;;;;;;;8.55;5.03;;;20.90;41.50;;;;;;5074607;28;20055;-47
2021/01/28 01:56:31;;;;;;;8.75;5.22;;;20.90;41.50;;;;;;5075543;28;20020;-52
2021/01/28 01:59:16;;;;;;;8.52;4.65;;;20.90;41.60;;;;;;5075178;28;20040;-47
2021/01/28 02:01:56;;;;;;;8.82;4.95;;;20.90;41.60;;;;;;5074377;28;20044;-50
2021/01/28 02:04:22;;;;;;;7.75;4.50;;;20.80;41.50;;;;;;5075496;28;20024;-45
2021/01/28 02:06:51;;;;;;;8.35;4.88;;;20.80;41.60;;;;;;5074586;28;20427;-45
2021/01/28 02:09:17;;;;;;;6.07;4.43;;;20.80;41.60;;;;;;5074936;28;20029;-48
2021/01/28 02:11:43;;;;;;;9.23;5.18;;;20.80;41.60;;;;;;5074569;28;20482;-52
2021/01/28 02:14:11;;;;;;;8.95;5.00;;;20.80;41.60;;;;;;5074013;28;20414;-49
2021/01/28 02:16:41;;;;;;;8.07;4.97;;;20.80;41.60;;;;;;5074584;28;20049;-52
2021/01/28 02:19:23;;;;;;;9.15;4.90;;;20.70;41.60;;;;;;5074770;28;20064;-47
2021/01/28 02:21:48;;;;;;;7.93;5.18;;;20.70;41.60;;;;;;5074653;28;20029;-48
2021/01/28 02:24:31;;;;;;;8.30;5.18;;;20.70;41.60;;;;;;5074865;28;20036;-50
2021/01/28 02:26:57;;;;;;;9.40;5.20;;;20.70;41.60;;;;;;5074629;28;20029;-47
2021/01/28 02:29:24;;;;;;;10.40;5.32;;;20.70;41.60;;;;;;5074420;28;20024;-47
2021/01/28 02:31:55;;;;;;;10.85;5.45;;;20.70;41.60;;;;;;5074519;28;20043;-47
2021/01/28 02:34:21;;;;;;;7.10;4.88;;;20.70;41.70;;;;;;5075048;28;20140;-49
2021/01/28 02:36:50;;;;;;;9.60;4.80;;;20.70;41.70;;;;;;5074319;28;20443;-48
2021/01/28 02:39:19;;;;;;;7.88;5.30;;;20.70;41.70;;;;;;5074588;28;20025;-46
2021/01/28 02:41:53;;;;;;;7.35;5.00;;;20.60;41.70;;;;;;5074661;28;20063;-46
2021/01/28 02:44:18;;;;;;;;;;;20.60;41.70;;;;;;5075071;28;20025;-49
2021/01/28 02:46:44;;;;;;;10.35;5.35;;;20.60;41.70;;;;;;5074575;28;19958;-46
2021/01/28 02:49:09;;;;;;;11.73;5.10;;;20.60;41.70;;;;;;5074860;28;20052;-49
2021/01/28 02:51:35;;;;;;;8.68;5.10;;;20.60;41.80;;;;;;5074156;28;20116;-50
2021/01/28 02:54:00;;;;;;;9.18;5.25;;;20.60;41.80;;;;;;5074765;28;20508;-50
2021/01/28 02:56:27;;;;;;;8.75;5.13;;;20.60;41.80;;;;;;5074627;28;20029;-48
2021/01/28 02:58:53;;;;;;;10.93;5.53;;;20.50;41.70;;;;;;5074442;28;20020;-48
2021/01/28 03:01:20;;;;;;;7.28;5.07;;;20.50;41.80;;;;;;5073749;28;20374;-50
2021/01/28 03:03:46;;;;;;;10.68;5.28;;;20.50;41.70;;;;;;5074149;28;20020;-48
2021/01/28 03:06:13;;;;;;;9.90;5.32;;;20.50;41.80;;;;;;5074356;28;20347;-47
2021/01/28 03:08:39;;;;;;;9.77;5.20;;;20.60;41.80;;;;;;5074306;28;20067;-46
2021/01/28 03:11:05;;;;;;;10.27;5.63;;;20.50;41.80;;;;;;5074229;28;20056;-46
2021/01/28 03:13:30;;;;;;;10.15;5.38;;;20.50;41.80;;;;;;5074441;28;20036;-49
2021/01/28 03:15:57;;;;;;;9.32;5.22;;;20.50;41.80;;;;;;5074050;28;20028;-49
2021/01/28 03:18:23;;;;;;;9.50;5.88;;;20.50;41.90;;;;;;5074052;28;20028;-47
2021/01/28 03:20:51;;;;;;;10.40;5.80;;;20.50;41.90;;;;;;5074532;28;20028;-47
2021/01/28 03:23:16;;;;;;;11.63;5.72;;;20.50;41.90;;;;;;5074175;28;20032;-47
2021/01/28 03:25:42;;;;;;;9.85;5.55;;;20.50;41.90;;;;;;5073847;28;20032;-49
2021/01/28 03:28:08;;;;;;;13.18;5.72;;;20.50;41.90;;;;;;5077328;28;20036;-48
2021/01/28 03:30:36;;;;;;;9.20;5.22;;;20.40;41.80;;;;;;5077529;28;20048;-50
2021/01/28 03:33:05;;;;;;;10.95;5.63;;;20.40;41.90;;;;;;5077233;28;20044;-47
2021/01/28 03:35:30;;;;;;;9.70;5.80;;;20.40;41.90;;;;;;5077837;28;20087;-48
2021/01/28 03:37:56;;;;;;;8.02;5.18;;;20.40;41.90;;;;;;5077499;28;20032;-46
2021/01/28 03:40:24;;;;;;;11.15;5.30;;;20.40;41.90;;;;;;5077407;28;20059;-48
2021/01/28 03:42:50;;;;;;;9.40;5.03;;;20.40;41.90;;;;;;5077449;28;20090;-48
2021/01/28 03:45:15;;;;;;;10.75;5.95;;;20.40;41.90;;;;;;5077231;28;20394;-47
2021/01/28 03:47:41;;;;;;;8.00;5.28;;;20.40;41.90;;;;;;5077292;28;20520;-50
2021/01/28 03:50:09;;;;;;;9.50;6.30;;;20.40;42.00;;;;;;5077302;28;20496;-48
2021/01/28 03:52:35;;;;;;;10.55;5.93;;;20.40;42.00;;;;;;5077307;28;20113;-47
2021/01/28 03:55:01;;;;;;;11.77;6.05;;;20.30;41.90;;;;;;5077429;28;20502;-48
2021/01/28 03:57:26;;;;;;;10.10;5.28;;;20.30;42.00;;;;;;5077218;28;20031;-45
2021/01/28 03:59:52;;;;;;;10.80;6.05;;;20.30;42.00;;;;;;5076839;28;20293;-51
2021/01/28 04:02:17;;;;;;;10.10;5.95;;;20.30;42.00;;;;;;5077126;28;20040;-52
2021/01/28 04:04:43;;;;;;;10.60;5.93;;;20.30;42.00;;;;;;5077181;28;20031;-47
2021/01/28 04:07:08;;;;;;;7.22;5.00;;;20.30;42.00;;;;;;5076992;28;20025;-49
2021/01/28 04:09:34;;;;;;;7.10;5.35;;;20.30;42.00;;;;;;5077692;28;20052;-49
2021/01/28 04:11:59;;;;;;;11.02;6.38;;;20.30;42.00;;;;;;5076508;28;20035;-45
2021/01/28 04:14:25;;;;;;;9.43;5.43;;;20.30;42.10;;;;;;5076659;28;20067;-45
2021/01/28 04:16:50;;;;;;;10.35;5.93;;;20.30;42.10;;;;;;5076824;28;20035;-47
2021/01/28 04:19:16;;;;;;;10.75;6.10;;;20.30;42.10;;;;;;5076879;28;20025;-47
2021/01/28 04:21:41;;;;;;;9.93;5.57;;;20.20;42.00;;;;;;5076810;28;20028;-47
2021/01/28 04:24:08;;;;;;;7.65;5.32;;;20.20;42.10;;;;;;5076890;28;20028;-47
2021/01/28 04:26:34;;;;;;;9.70;5.70;;;20.20;42.00;;;;;;5076495;28;20017;-49
2021/01/28 04:29:01;;;;;;;11.15;5.40;;;20.20;42.00;;;;;;5076432;28;20025;-47
2021/01/28 04:31:26;;;;;;;8.50;5.07;;;20.20;42.00;;;;;;5076212;28;20387;-49
2021/01/28 04:33:52;;;;;;;6.82;4.82;;;20.20;42.00;;;;;;5059337;28;20031;-51
2021/01/28 04:36:17;;;;;;;7.68;4.10;;;20.20;42.00;;;;;;5076253;28;20039;-46
2021/01/28 04:38:43;;;;;;;9.52;4.68;;;20.20;42.00;;;;;;5075606;28;20021;-46
2021/01/28 04:41:21;;;;;;;6.70;4.20;;;20.20;42.00;;;;;;5076357;28;20055;-48
2021/01/28 04:43:49;;;;;;;6.50;4.07;;;20.10;42.00;;;;;;5076273;28;20116;-46
2021/01/28 04:46:25;;;;;;;8.23;4.60;;;20.20;42.00;;;;;;5076513;28;20035;-48
2021/01/28 04:48:52;;;;;;;6.47;3.75;;;20.20;42.00;;;;;;5076547;28;20017;-47
2021/01/28 04:51:19;;;;;;;5.03;3.33;;;20.10;42.00;;;;;;5076122;28;20028;-47
2021/01/28 04:53:52;;;;;;;6.03;3.38;;;20.10;41.90;;;;;;5076141;28;20048;-45
2021/01/28 04:56:21;;;;;;;5.60;3.40;;;20.10;41.90;;;;;;5075974;28;20032;-48
2021/01/28 04:58:51;;;;;;;6.13;3.22;;;20.10;41.90;;;;;;5076344;28;20389;-47
2021/01/28 05:01:16;;;;;;;5.25;3.20;;;20.10;41.90;;;;;;5076027;28;20328;-48
2021/01/28 05:03:52;;;;;;;5.47;3.33;;;20.10;41.90;;;;;;5075844;28;20086;-53
2021/01/28 05:06:18;;;;;;;6.25;3.30;;;20.10;42.00;;;;;;5076151;28;20182;-46
2021/01/28 05:08:43;;;;;;;6.00;3.08;;;20.10;41.90;;;;;;5075889;28;20036;-48
2021/01/28 05:11:26;;;;;;;3.97;2.95;;;20.00;41.90;;;;;;5075680;28;20037;-48
2021/01/28 05:13:52;;;;;;;3.60;2.53;;;20.10;41.90;;;;;;5075593;28;20036;-46
2021/01/28 05:16:38;;;;;;;3.97;2.60;;;20.00;41.90;;;;;;5075806;28;20024;-45
2021/01/28 05:19:07;;;;;;;2.97;2.22;;;20.00;41.80;;;;;;5075922;28;20089;-49
2021/01/28 05:21:45;;;;;;;2.85;2.20;;;20.00;41.90;;;;;;5075538;28;20029;-50
2021/01/28 05:24:31;;;;;;;4.85;2.63;;;20.00;41.90;;;;;;5075591;28;20029;-51
2021/01/28 05:27:11;;;;;;;3.58;2.20;;;20.00;41.90;;;;;;5075412;28;20020;-50
2021/01/28 05:29:40;;;;;;;3.58;1.90;;;20.00;41.90;;;;;;5075394;28;20082;-45
2021/01/28 05:32:29;;;;;;;3.10;2.00;;;20.00;41.90;;;;;;5075290;28;20043;-50
2021/01/28 05:35:17;;;;;;;3.00;1.98;;;19.90;41.80;;;;;;5075469;28;20017;-47
2021/01/28 05:37:44;;;;;;;2.80;1.90;;;20.00;41.90;;;;;;5057704;28;20395;-46
2021/01/28 05:40:26;;;;;;;4.18;2.17;;;20.00;41.90;;;;;;5075193;28;20029;-45
2021/01/28 05:42:52;;;;;;;5.18;2.15;;;19.90;41.90;;;;;;5074873;28;20067;-48
2021/01/28 05:45:36;;;;;;;3.08;1.85;;;19.90;41.90;;;;;;5075577;28;20028;-48
2021/01/28 05:48:25;;;;;;;2.90;1.83;;;19.90;41.90;;;;;;5074827;28;20021;-47
2021/01/28 05:51:32;;;;;;;3.03;1.80;;;19.90;41.90;;;;;;5074356;28;20032;-49
2021/01/28 05:54:03;;;;;;;2.70;1.90;;;19.90;41.90;;;;;;5052806;28;20131;-52
2021/01/28 05:56:31;;;;;;;3.42;1.92;;;19.80;41.90;;;;;;5074843;28;20085;-48
2021/01/28 05:59:06;;;;;;;3.00;1.80;;;19.80;41.90;;;;;;5075465;28;20032;-50
2021/01/28 06:02:06;;;;;;;2.33;1.52;;;19.80;41.90;;;;;;5075137;28;20476;-53
2021/01/28 06:04:43;;;;;;;3.58;1.58;;;19.80;41.90;;;;;;5074738;28;20367;-53
2021/01/28 06:07:42;;;;;;;2.08;1.38;;;19.80;41.90;;;;;;5074805;28;20085;-52
2021/01/28 06:10:20;;;;;;;2.97;1.30;;;19.80;41.90;;;;;;5074865;28;20032;-49
2021/01/28 06:13:06;;;;;;;2.08;1.17;;;19.80;41.90;;;;;;5074989;28;20036;-50
2021/01/28 06:15:48;;;;;;;2.55;1.50;;;19.80;41.90;;;;;;5074487;28;20461;-47
2021/01/28 06:18:43;;;;;;;2.45;1.27;;;19.80;41.90;;;;;;5074728;28;20020;-51
2021/01/28 06:21:28;;;;;;;2.08;1.20;;;19.80;41.90;;;;;;5066720;28;20066;-51
2021/01/28 06:24:14;;;;;;;3.08;1.50;;;19.80;41.90;;;;;;5064737;28;20053;-49
2021/01/28 06:26:59;;;;;;;1.40;1.27;;;19.80;41.90;;;;;;5062837;28;20026;-53
2021/01/28 06:29:36;;;;;;;1.83;1.23;;;19.70;41.80;;;;;;5054427;28;20426;-49
2021/01/28 06:32:38;;;;;;;2.05;1.15;;;19.70;41.80;;;;;;5054381;28;20083;-46
2021/01/28 06:35:48;;;;;;;2.13;1.17;;;19.80;41.90;;;;;;5054659;28;20025;-46
2021/01/28 06:38:37;;;;;;;2.08;1.20;;;19.70;41.80;;;;;;5020142;28;20037;-47
2021/01/28 06:41:07;;;;;;;1.95;1.27;;;19.70;41.80;;;;;;5054675;28;20052;-50
2021/01/28 06:43:43;;;;;;;1.20;1.10;;;19.70;41.90;;;;;;5054853;28;20032;-47
2021/01/28 06:46:33;;;;;;;1.55;1.17;;;19.70;41.90;;;;;;5054354;28;20427;-47
2021/01/28 06:49:22;;;;;;;1.90;1.60;;;19.70;41.90;;;;;;5054132;28;20038;-47
2021/01/28 06:52:09;;;;;;;1.83;1.20;;;19.70;41.90;;;;;;5054477;28;20098;-46
2021/01/28 06:55:04;;;;;;;3.15;1.33;;;19.60;41.80;;;;;;5054665;28;20041;-49
2021/01/28 06:57:51;;;;;;;1.63;1.27;;;19.60;42.50;;;;;;5054853;28;20036;-49
2021/01/28 07:00:33;;;;;;;3.45;1.38;;;19.70;41.90;;;;;;5054172;28;20486;-48
2021/01/28 07:03:30;;;;;;;2.10;1.40;;;19.60;41.80;;;;;;5057833;28;20021;-48
2021/01/28 07:06:09;;;;;;;3.38;1.67;;;19.60;41.80;;;;;;5057790;28;20459;-50
2021/01/28 07:08:49;;;;;;;5.38;1.40;;;19.60;41.90;;;;;;5057789;28;20025;-50
2021/01/28 07:11:27;;;;;;;2.97;1.30;;;19.60;42.00;;;;;;5057071;28;20041;-46
2021/01/28 07:13:53;;;;;;;3.75;1.98;;;19.60;42.00;;;;;;5058136;28;20427;-49
2021/01/28 07:16:29;;;;;;;2.00;1.60;;;19.60;42.10;;;;;;5058274;28;20032;-48
2021/01/28 07:19:03;;;;;;;3.63;1.90;;;19.60;42.10;;;;;;5057621;28;20033;-50
2021/01/28 07:21:36;;;;;;;2.88;1.60;;;19.60;42.10;;;;;;5057453;28;20378;-48
2021/01/28 07:24:05;;;;;;;4.47;1.92;;;19.60;42.10;;;;;;5057900;28;20103;-48
2021/01/28 07:26:46;;;;;;;3.08;1.60;;;19.60;42.10;;;;;;5057007;28;20035;-51
2021/01/28 07:29:40;;;;;;;1.83;1.40;;;19.60;42.20;;;;;;5057055;28;20032;-49
2021/01/28 07:32:09;;;;;;;2.97;1.33;;;19.70;42.20;;;;;;5057381;28;20029;-51
2021/01/28 07:34:35;;;;;;;1.50;1.13;;;19.70;42.30;;;;;;5057834;28;20025;-52
2021/01/28 07:37:24;;;;;;;2.15;1.30;;;19.70;42.30;;;;;;5056571;28;20025;-51
2021/01/28 07:39:50;;;;;;;1.80;1.20;;;19.70;42.30;;;;;;5057676;28;20025;-47
2021/01/28 07:42:21;;;;;;;2.53;1.33;;;19.70;42.30;;;;;;5057662;28;20044;-49
2021/01/28 07:44:54;;;;;;;2.85;1.45;;;19.80;42.50;;;;;;5057281;28;20029;-46
2021/01/28 07:47:31;;;;;;;1.67;1.17;;;19.80;42.30;;;;;;5057337;28;20071;-49
2021/01/28 07:50:21;;;;;;;3.10;1.08;;;19.80;42.00;;;;;;5057495;28;20108;-49
2021/01/28 07:52:46;;;;;;;2.20;1.25;;;19.80;42.20;;;;;;5057357;28;20049;-47
2021/01/28 07:55:43;;;;;;;3.58;1.02;;;19.80;42.20;;;;;;5056808;28;20055;-49
2021/01/28 07:58:26;;;;;;;2.42;1.35;;;19.80;42.30;;;;;;5053454;28;20045;-49
2021/01/28 08:00:52;;;;;;;1.13;1.00;;;19.80;42.30;;;;;;5056734;28;20021;-49
2021/01/28 08:03:35;;;;;;;2.90;1.15;;;19.80;42.30;;;;;;5056017;28;20439;-51
2021/01/28 08:06:05;;;;;;;1.77;1.17;;;19.90;42.40;;;;;;5056765;28;20025;-53
2021/01/28 08:08:31;;;;;;;4.63;1.15;;;19.90;42.50;;;;;;5056479;28;20017;-48
2021/01/28 08:11:21;;;;;;;4.13;0.90;;;19.90;42.60;;;;;;5057151;28;20025;-49
2021/01/28 08:13:57;;;;;;;4.43;1.60;;;19.90;43.30;;;;;;5055958;28;20036;-49
2021/01/28 08:16:24;;;;;;;1.95;1.17;;;19.90;42.70;;;;;;5056791;28;20045;-50
2021/01/28 08:19:10;;;;;;;2.78;1.00;;;19.90;42.70;;;;;;5056465;28;20436;-51
2021/01/28 08:21:35;;;;;;;2.38;1.00;;;20.00;42.70;;;;;;5056809;28;20021;-49
2021/01/28 08:24:39;;;;;;;3.47;1.50;;;19.90;42.80;;;;;;5056787;28;20029;-51
2021/01/28 08:27:16;;;;;;;2.80;1.13;;;20.00;42.70;;;;;;5056611;28;20053;-46
2021/01/28 08:29:42;;;;;;;7.75;0.90;;;19.90;42.60;;;;;;5056643;28;20068;-49
2021/01/28 08:32:26;;;;;;;1.30;0.95;;;19.90;42.60;;;;;;5056510;28;20072;-50
2021/01/28 08:35:00;;;;;;;;;;;20.00;42.70;;;;;;5057043;28;20036;-52
2021/01/28 08:37:28;;;;;;;1.48;0.75;;;19.90;42.60;;;;;;5056712;28;20002;-50
2021/01/28 08:39:54;;;;;;;2.22;0.90;;;20.00;42.70;;;;;;5056382;28;20044;-47
2021/01/28 08:42:22;;;;;;;2.30;1.10;;;20.00;42.80;;;;;;5056104;28;20120;-52
2021/01/28 08:44:50;;;;;;;2.10;0.70;;;20.00;42.80;;;;;;5056659;28;20044;-49
2021/01/28 08:47:20;;;;;;;2.72;1.05;;;20.00;42.90;;;;;;5055806;28;20359;-49
2021/01/28 08:50:00;;;;;;;2.30;1.08;;;20.00;43.00;;;;;;5056373;28;20065;-45
2021/01/28 08:52:26;;;;;;;1.50;0.90;;;20.00;43.00;;;;;;5055815;28;20052;-49
2021/01/28 08:54:52;;;;;;;1.55;1.00;;;20.10;43.10;;;;;;5055842;28;20025;-46
2021/01/28 08:57:20;;;;;;;3.22;1.13;;;20.10;43.10;;;;;;5056112;28;20036;-45
2021/01/28 08:59:51;;;;;;;2.97;0.80;;;20.10;43.10;;;;;;5056185;28;20032;-49
2021/01/28 09:02:28;;;;;;;1.27;0.70;;;20.10;43.10;;;;;;5055848;28;20017;-49
2021/01/28 09:05:19;;;;;;;1.45;0.77;;;20.10;43.10;;;;;;5056220;28;20040;-47
2021/01/28 09:07:51;;;;;;;0.52;0.50;;;20.10;43.10;;;;;;5055500;28;20461;-45
2021/01/28 09:10:32;;;;;;;5.15;1.13;;;20.10;43.10;;;;;;5055800;28;20029;-45
2021/01/28 09:13:15;;;;;;;3.63;0.70;;;20.10;43.10;;;;;;5055410;28;20467;-50
2021/01/28 09:15:41;;;;;;;2.47;0.90;;;20.10;43.20;;;;;;5055709;28;20083;-46
2021/01/28 09:18:15;;;;;;;2.22;0.57;;;20.10;43.20;;;;;;5055378;28;20040;-48
2021/01/28 09:20:41;;;;;;;1.92;0.98;;;20.10;43.20;;;;;;5059857;28;20017;-47
2021/01/28 09:23:11;;;;;;;1.30;0.80;;;20.10;43.30;;;;;;5075508;28;20098;-47
2021/01/28 09:25:37;;;;;;;1.75;0.85;;;20.10;43.30;;;;;;5075190;28;20031;-51
2021/01/28 09:28:07;;;;;;;1.73;1.00;;;20.10;43.20;;;;;;5074961;28;20020;-49
2021/01/28 09:30:37;;;;;;;2.50;0.80;;;20.20;43.20;;;;;;5075215;28;20040;-47
2021/01/28 09:33:28;;;;;;;2.88;0.85;;;20.20;43.20;;;;;;5074602;28;20080;-50
2021/01/28 09:36:20;;;;;;;0.90;0.82;;;20.20;43.20;;;;;;5079932;28;20080;-47
2021/01/28 09:39:10;;;;;;;1.33;0.90;;;20.20;43.10;;;;;;5094645;28;20048;-47
2021/01/28 09:41:43;;;;;;;1.20;1.08;;;20.20;43.10;;;;;;5095406;28;20181;-48
2021/01/28 09:44:29;;;;;;;1.77;0.63;;;20.20;43.10;;;;;;5055070;28;20436;-45
2021/01/28 09:47:17;;;;;;;2.00;1.08;;;20.20;43.10;;;;;;5054694;28;20040;-48
2021/01/28 09:49:48;;;;;;;0.70;0.70;;;20.20;43.00;;;;;;5054746;28;20032;-51
2021/01/28 09:52:28;;;;;;;0.88;0.85;;;20.20;43.00;;;;;;5054655;28;20419;-46
2021/01/28 09:54:57;;;;;;;1.05;0.80;;;20.30;43.00;;;;;;5054738;28;20059;-51
2021/01/28 09:57:24;;;;;;;0.85;0.50;;;20.20;42.90;;;;;;5054634;28;20033;-48
2021/01/28 09:59:50;;;;;;;0.90;0.82;;;20.20;42.90;;;;;;5054868;28;20028;-46
2021/01/28 10:02:41;;;;;;;1.05;0.80;;;20.20;42.80;;;;;;5055062;28;20025;-46
2021/01/28 10:05:08;;;;;;;1.02;0.77;;;20.30;42.90;;;;;;5059537;28;20082;-46
2021/01/28 10:07:34;;;;;;;1.30;1.00;;;20.20;42.80;;;;;;5069053;28;20085;-46
2021/01/28 10:09:59;;;;;;;1.08;0.85;;;20.30;42.80;;;;;;5074288;28;20028;-50
2021/01/28 10:12:26;;;;;;;0.80;0.80;;;20.30;42.80;;;;;;5074635;28;20032;-48
2021/01/28 10:14:53;;;;;;;1.00;1.00;;;20.30;42.90;;;;;;5074673;28;20039;-50
2021/01/28 10:17:19;;;;;;;1.30;1.02;;;20.30;42.90;;;;;;5074314;28;20374;-55
2021/01/28 10:19:44;;;;;;;1.95;1.25;;;20.30;42.90;;;;;;5074674;28;20032;-55
2021/01/28 10:22:12;;;;;;;4.10;0.95;;;20.30;42.90;;;;;;5074768;28;20035;-59
2021/01/28 10:24:38;;;;;;;1.35;1.00;;;20.30;43.50;;;;;;5074794;28;20039;-49
2021/01/28 10:27:03;;;;;;;5.20;0.90;;;20.30;42.90;;;;;;5074751;28;20020;-50
2021/01/28 10:29:29;;;;;;;1.20;1.10;;;20.30;42.80;;;;;;5074383;28;20343;-49
2021/01/28 10:31:55;;;;;;;1.40;0.93;;;20.30;42.80;;;;;;5074332;28;20021;-48
2021/01/28 10:34:20;;;;;;;2.20;0.98;;;20.30;42.80;;;;;;5074356;28;20032;-49
2021/01/28 10:36:46;;;;;;;2.35;1.00;;;20.30;42.90;;;;;;5077353;28;20516;-49
2021/01/28 10:39:11;;;;;;;1.10;0.93;;;20.30;42.90;;;;;;5078501;28;20016;-47
2021/01/28 10:41:37;;;;;;;2.80;1.10;;;20.30;42.90;;;;;;5078548;28;20021;-50
2021/01/28 10:44:03;;;;;;;0.85;0.73;;;20.30;43.10;;;;;;5078724;28;20351;-51
2021/01/28 10:46:28;;;;;;;4.93;0.98;;;20.40;43.20;;;;;;5078898;28;20066;-48
2021/01/28 10:48:54;;;;;;;1.52;0.95;;;20.40;43.20;;;;;;5078543;28;20032;-51
2021/01/28 10:51:20;;;;;;;1.80;1.10;;;20.40;43.30;;;;;;5078193;28;20070;-52
2021/01/28 10:53:46;;;;;;;4.95;0.82;;;20.40;43.30;;;;;;5077688;28;20048;-49
2021/01/28 10:56:12;;;;;;;1.00;0.95;;;20.40;43.40;;;;;;5070585;28;20055;-47
2021/01/28 10:58:37;;;;;;;3.25;1.20;;;20.40;43.50;;;;;;5079721;28;20426;-51
2021/01/28 11:01:03;;;;;;;1.08;0.98;;;20.40;43.40;;;;;;5098144;28;20032;-50
2021/01/28 11:03:29;;;;;;;1.15;1.08;;;20.40;43.40;;;;;;5098366;28;20110;-48
2021/01/28 11:05:54;;;;;;;0.80;0.80;;;20.50;43.40;;;;;;5098367;28;20024;-51
2021/01/28 11:08:20;;;;;;;1.20;1.10;;;20.50;43.40;;;;;;5097975;28;20028;-49
2021/01/28 11:10:46;;;;;;;0.88;0.88;;;20.50;43.30;;;;;;5098434;28;20449;-46
2021/01/28 11:13:11;;;;;;;1.38;1.20;;;20.50;43.30;;;;;;5097788;28;20089;-52
2021/01/28 11:15:37;;;;;;;0.70;0.70;;;20.50;43.20;;;;;;5098167;28;20113;-51
2021/01/28 11:18:07;;;;;;;1.48;1.33;;;20.50;43.20;;;;;;5098273;28;20379;-51
2021/01/28 11:20:33;;;;;;;1.38;1.27;;;20.50;43.20;;;;;;5098279;28;20016;-48
2021/01/28 11:22:59;;;;;;;1.13;1.10;;;20.50;43.20;;;;;;5097719;28;20042;-50
2021/01/28 11:25:27;;;;;;;2.08;1.00;;;20.50;43.20;;;;;;5098097;28;20338;-48
2021/01/28 11:27:52;;;;;;;1.30;1.10;;;20.50;43.20;;;;;;5097814;28;20431;-47
2021/01/28 11:30:22;;;;;;;1.02;0.90;;;20.50;43.20;;;;;;5097713;28;20103;-45
2021/01/28 11:32:48;;;;;;;0.77;0.77;;;20.50;43.20;;;;;;5097660;28;20119;-47
2021/01/28 11:35:15;;;;;;;1.55;1.02;;;20.50;43.10;;;;;;5097575;28;20070;-45
2021/01/28 11:37:45;;;;;;;1.00;0.95;;;20.50;43.10;;;;;;5097287;28;20032;-53
2021/01/28 11:40:11;;;;;;;2.47;1.27;;;20.50;43.20;;;;;;5097900;28;20035;-45
2021/01/28 11:42:37;;;;;;;1.88;1.10;;;20.50;43.20;;;;;;5087546;28;20056;-43
2021/01/28 11:45:04;;;;;;;2.28;1.00;;;20.50;43.90;;;;;;5080864;28;20048;-46
2021/01/28 11:47:29;;;;;;;1.15;1.02;;;20.50;43.20;;;;;;5055675;28;20086;-51
2021/01/28 11:49:55;;;;;;;2.88;1.27;;;20.60;43.20;;;;;;5064226;28;20104;-45
2021/01/28 11:52:21;;;;;;;1.40;1.05;;;20.60;43.10;;;;;;5095701;28;20032;-45
2021/01/28 11:54:47;;;;;;;2.13;1.10;;;20.60;43.10;;;;;;5096762;28;20016;-50
2021/01/28 11:57:12;;;;;;;2.97;1.02;;;20.60;43.10;;;;;;5097032;28;20138;-47
2021/01/28 11:59:38;;;;;;;1.40;1.20;;;20.50;43.00;;;;;;5097151;28;20028;-47
2021/01/28 12:02:03;;;;;;;1.00;0.90;;;20.50;43.10;;;;;;5096933;28;20107;-46
2021/01/28 12:04:28;;;;;;;6.90;0.98;;;20.50;43.10;;;;;;5097084;28;20020;-45
2021/01/28 12:06:54;;;;;;;1.98;1.10;;;20.60;43.10;;;;;;5097077;28;20020;-44
2021/01/28 12:09:21;;;;;;;1.35;1.25;;;20.60;43.10;;;;;;5097622;28;20107;-45
2021/01/28 12:11:46;;;;;;;1.00;0.88;;;20.60;43.10;;;;;;5097322;28;20043;-48
2021/01/28 12:14:12;;;;;;;0.93;0.90;;;20.60;43.10;;;;;;5096295;28;20103;-50
2021/01/28 12:16:37;;;;;;;1.95;1.10;;;20.60;43.10;;;;;;5081547;28;20024;-46
2021/01/28 12:19:03;;;;;;;1.00;0.90;;;20.60;43.00;;;;;;5087458;28;20438;-46
2021/01/28 12:21:29;;;;;;;1.17;1.08;;;20.60;43.00;;;;;;5096642;28;20036;-44
2021/01/28 12:23:55;;;;;;;1.85;0.93;;;20.60;43.00;;;;;;5096783;28;20103;-46
2021/01/28 12:26:22;;;;;;;0.80;0.80;;;20.60;43.00;;;;;;5096473;28;20107;-48
2021/01/28 12:28:48;;;;;;;1.25;0.85;;;20.60;43.00;;;;;;5096758;28;20334;-47
2021/01/28 12:31:14;;;;;;;0.85;0.80;;;20.60;42.90;;;;;;5096742;28;20031;-49
2021/01/28 12:33:39;;;;;;;1.50;0.98;;;20.60;42.90;;;;;;5096693;28;20024;-46
2021/01/28 12:36:07;;;;;;;1.17;0.80;;;20.60;42.90;;;;;;5096648;28;20545;-44
2021/01/28 12:38:33;;;;;;;0.82;0.80;;;20.60;42.90;;;;;;5096597;28;20366;-46
2021/01/28 12:40:59;;;;;;;0.88;0.80;;;20.60;42.90;;;;;;5096759;28;20454;-49
2021/01/28 12:43:24;;;;;;;0.70;0.70;;;20.60;42.90;;;;;;5096775;28;20122;-52
2021/01/28 12:45:50;;;;;;;0.55;0.55;;;20.60;42.80;;;;;;5096065;28;20340;-46
2021/01/28 12:48:15;;;;;;;1.35;0.80;;;20.70;42.90;;;;;;5096412;28;20029;-49
2021/01/28 12:50:41;;;;;;;0.70;0.70;;;20.60;42.90;;;;;;5096037;28;20038;-45
2021/01/28 12:53:06;;;;;;;0.93;0.60;;;20.60;42.80;;;;;;5096522;28;20051;-48
2021/01/28 12:55:32;;;;;;;0.88;0.73;;;20.70;42.90;;;;;;5096045;28;20467;-46
2021/01/28 12:57:57;;;;;;;0.93;0.70;;;20.70;42.80;;;;;;5096359;28;20031;-46
2021/01/28 13:00:24;;;;;;;0.85;0.65;;;20.70;42.80;;;;;;5095973;28;20020;-45
2021/01/28 13:02:50;;;;;;;2.25;1.00;;;20.70;42.80;;;;;;5096498;28;20111;-43
2021/01/28 13:05:16;;;;;;;0.98;0.70;;;20.70;42.80;;;;;;5095454;28;20399;-48